Time;durP1;ratioP1;P1;durP2;ratioP2;P2;SDS_P1;SDS_P2;PMS_P1;PMS_P2;Temp;Humidity;BMP_temperature;BMP_pressure;BME280_temperature;BME280_humidity;BME280_pressure;Samples;Min_cycle;Max_cycle;Signal;HPM_P1;HPM_P2
2024/01/16 00:02:19;;;;;;;0.80;0.80;;;;;-2.20;95309.00;;;;5055752;28;20221;-61
2024/01/16 00:04:46;;;;;;;1.00;1.00;;;;;-2.20;95306.00;;;;5055282;28;20193;-62
2024/01/16 00:07:13;;;;;;;6.03;1.47;;;;;-2.00;95308.00;;;;5055224;28;20188;-62
2024/01/16 00:09:41;;;;;;;1.53;1.43;;;;;-2.10;95313.00;;;;5055280;28;20637;-62
2024/01/16 00:12:09;;;;;;;1.80;1.67;;;;;-2.20;95311.00;;;;5055139;28;20235;-61
2024/01/16 00:14:37;;;;;;;1.50;1.40;;;;;-2.20;95311.00;;;;5055501;28;20192;-62
2024/01/16 00:17:06;;;;;;;0.90;0.90;;;;;-2.10;95310.00;;;;5055057;28;20195;-61
2024/01/16 00:19:33;;;;;;;1.63;1.53;;;;;-2.20;95306.00;;;;5054694;28;20203;-62
2024/01/16 00:22:02;;;;;;;1.70;1.63;;;;;-2.30;95300.00;;;;5054653;28;20215;-61
2024/01/16 00:24:30;;;;;;;2.33;1.63;;;;;-2.40;95309.00;;;;5054815;28;20660;-61
2024/01/16 00:26:57;;;;;;;1.13;1.13;;;;;-2.30;95310.00;;;;5054974;28;20196;-62
2024/01/16 00:29:25;;;;;;;1.40;1.40;;;;;-2.20;95305.00;;;;5054169;28;20616;-62
2024/01/16 00:31:53;;;;;;;0.97;0.97;;;;;-2.10;95301.00;;;;5053462;28;20307;-62
2024/01/16 00:34:21;;;;;;;0.97;0.97;;;;;-2.20;95313.00;;;;5053786;28;20202;-62
2024/01/16 00:36:49;;;;;;;1.10;1.10;;;;;-2.20;95306.00;;;;5054687;28;20620;-62
2024/01/16 00:39:16;;;;;;;2.70;1.67;;;;;-2.10;95313.00;;;;5054847;28;20652;-62
2024/01/16 00:41:43;;;;;;;1.00;1.00;;;;;-2.10;95308.00;;;;5054611;28;20224;-62
2024/01/16 00:44:12;;;;;;;0.93;0.93;;;;;-2.20;95306.00;;;;5054546;28;20672;-62
2024/01/16 00:46:40;;;;;;;1.10;1.10;;;;;-2.10;95308.00;;;;5054571;28;20198;-61
2024/01/16 00:49:07;;;;;;;1.53;1.43;;;;;-2.30;95299.00;;;;5054314;28;20577;-62
2024/01/16 00:51:36;;;;;;;1.60;1.47;;;;;-2.30;95307.00;;;;5054112;28;20262;-61
2024/01/16 00:54:06;;;;;;;1.33;1.33;;;;;-2.30;95318.00;;;;5054748;28;20199;-62
2024/01/16 00:56:34;;;;;;;0.80;0.80;;;;;-2.30;95309.00;;;;5053097;28;20195;-62
2024/01/16 00:59:01;;;;;;;1.17;1.13;;;;;-2.30;95304.00;;;;5054521;28;20199;-62
2024/01/16 01:01:29;;;;;;;1.67;1.30;;;;;-2.20;95301.00;;;;5054208;28;20586;-62
2024/01/16 01:03:56;;;;;;;1.17;1.17;;;;;-2.00;95306.00;;;;5054282;28;20300;-62
2024/01/16 01:06:23;;;;;;;1.97;1.87;;;;;-2.20;95303.00;;;;5054020;28;20188;-61
2024/01/16 01:08:52;;;;;;;3.60;2.03;;;;;-2.10;95305.00;;;;5053971;28;20552;-61
2024/01/16 01:11:19;;;;;;;1.53;1.43;;;;;-1.90;95299.00;;;;5053963;28;20703;-60
2024/01/16 01:13:47;;;;;;;2.40;1.70;;;;;-2.00;95300.00;;;;5053634;28;20215;-60
2024/01/16 01:16:14;;;;;;;1.13;1.13;;;;;-2.20;95294.00;;;;5054266;28;20196;-60
2024/01/16 01:18:42;;;;;;;0.90;0.90;;;;;-2.10;95293.00;;;;5054196;28;20189;-60
2024/01/16 01:21:09;;;;;;;2.53;1.67;;;;;-2.30;95301.00;;;;5054355;28;20655;-60
2024/01/16 01:23:38;;;;;;;1.00;1.00;;;;;-2.30;95296.00;;;;5053628;28;20220;-62
2024/01/16 01:26:07;;;;;;;0.80;0.80;;;;;-2.40;95299.00;;;;5053880;28;20196;-61
2024/01/16 01:28:34;;;;;;;1.17;1.17;;;;;-2.50;95307.00;;;;5054120;28;20207;-61
2024/01/16 01:31:02;;;;;;;0.90;0.90;;;;;-2.40;95296.00;;;;5052762;28;20220;-61
2024/01/16 01:33:29;;;;;;;1.73;1.63;;;;;-2.60;95325.00;;;;5053808;28;20211;-61
2024/01/16 01:35:56;;;;;;;1.57;1.47;;;;;-2.60;95317.00;;;;5053816;28;20648;-62
2024/01/16 01:38:24;;;;;;;1.37;1.17;;;;;-2.60;95322.00;;;;5053757;28;20270;-61
2024/01/16 01:40:51;;;;;;;1.20;1.20;;;;;-2.60;95322.00;;;;5053431;28;20219;-62
2024/01/16 01:43:21;;;;;;;1.87;1.77;;;;;-2.70;95328.00;;;;5053437;28;20226;-62
2024/01/16 01:45:57;;;;;;;1.27;1.20;;;;;-2.70;95328.00;;;;5054110;28;20192;-62
2024/01/16 01:48:25;;;;;;;1.53;1.43;;;;;-2.70;95320.00;;;;5054198;28;20190;-62
2024/01/16 01:50:52;;;;;;;1.17;1.17;;;;;-2.70;95333.00;;;;5053431;28;20231;-62
2024/01/16 01:53:20;;;;;;;1.07;1.07;;;;;-2.70;95326.00;;;;5053334;28;20302;-61
2024/01/16 01:55:48;;;;;;;1.67;1.57;;;;;-2.80;95331.00;;;;5053384;28;20192;-61
2024/01/16 01:58:16;;;;;;;2.17;1.83;;;;;-2.80;95324.00;;;;5053169;28;20555;-61
2024/01/16 02:00:45;;;;;;;1.10;1.10;;;;;-2.50;95326.00;;;;5053150;28;20192;-61
2024/01/16 02:03:12;;;;;;;1.80;1.63;;;;;-2.50;95321.00;;;;5053117;28;20216;-61
2024/01/16 02:05:40;;;;;;;3.23;1.17;;;;;-2.60;95320.00;;;;5053120;28;20203;-62
2024/01/16 02:08:08;;;;;;;0.93;0.93;;;;;-2.70;95316.00;;;;5053102;28;20207;-62
2024/01/16 02:10:38;;;;;;;1.20;1.10;;;;;-2.80;95323.00;;;;5053043;28;20224;-62
2024/01/16 02:13:06;;;;;;;1.07;1.07;;;;;-2.90;95326.00;;;;5053170;28;20215;-62
2024/01/16 02:15:33;;;;;;;1.70;1.60;;;;;-2.90;95323.00;;;;5053046;28;20207;-62
2024/01/16 02:18:02;;;;;;;1.40;1.30;;;;;-2.90;95328.00;;;;5052835;28;20192;-62
2024/01/16 02:20:29;;;;;;;1.37;1.37;;;;;-2.90;95327.00;;;;5053012;28;20192;-62
2024/01/16 02:22:58;;;;;;;1.70;1.20;;;;;-2.90;95326.00;;;;5052835;28;20215;-61
2024/01/16 02:25:27;;;;;;;1.20;1.10;;;;;-3.10;95325.00;;;;5052798;28;20195;-62
2024/01/16 02:27:54;;;;;;;1.30;1.30;;;;;-3.10;95325.00;;;;5053380;28;20199;-62
2024/01/16 02:30:22;;;;;;;1.60;1.37;;;;;-3.10;95329.00;;;;5051576;28;20228;-61
2024/01/16 02:32:49;;;;;;;1.83;1.70;;;;;-3.20;95322.00;;;;5051643;28;20243;-61
2024/01/16 02:35:18;;;;;;;1.50;1.40;;;;;-3.20;95325.00;;;;5052882;28;20200;-61
2024/01/16 02:37:45;;;;;;;1.93;1.73;;;;;-3.20;95319.00;;;;5053084;28;20192;-64
2024/01/16 02:40:13;;;;;;;1.50;1.50;;;;;-3.30;95324.00;;;;5052660;28;20207;-62
2024/01/16 02:42:42;;;;;;;2.27;1.53;;;;;-3.30;95327.00;;;;5051306;28;20249;-61
2024/01/16 02:45:12;;;;;;;12.83;1.27;;;;;-3.30;95332.00;;;;5052692;28;20195;-61
2024/01/16 02:47:39;;;;;;;3.23;2.30;;;;;-3.30;95324.00;;;;5052933;28;20192;-62
2024/01/16 02:50:09;;;;;;;1.37;1.37;;;;;-3.50;95319.00;;;;5052566;28;20569;-61
2024/01/16 02:52:36;;;;;;;1.70;1.60;;;;;-3.60;95326.00;;;;5054929;28;20243;-62
2024/01/16 02:55:05;;;;;;;1.73;1.63;;;;;-3.60;95312.00;;;;5056277;28;20191;-62
2024/01/16 02:57:32;;;;;;;2.07;1.97;;;;;-3.60;95324.00;;;;5056677;28;20192;-62
2024/01/16 03:00:01;;;;;;;1.27;1.27;;;;;-3.70;95343.00;;;;5056211;28;20200;-61
2024/01/16 03:02:28;;;;;;;1.50;1.40;;;;;-3.70;95341.00;;;;5056521;28;20257;-61
2024/01/16 03:04:58;;;;;;;1.70;1.60;;;;;-3.80;95330.00;;;;5056707;28;20199;-62
2024/01/16 03:07:25;;;;;;;2.20;1.47;;;;;-3.90;95344.00;;;;5056270;28;20198;-62
2024/01/16 03:09:53;;;;;;;1.43;1.43;;;;;-3.90;95333.00;;;;5056083;28;20702;-62
2024/01/16 03:12:20;;;;;;;5.70;1.43;;;;;-3.90;95331.00;;;;5056058;28;20688;-62
2024/01/16 03:14:47;;;;;;;1.33;1.20;;;;;-4.00;95339.00;;;;5055966;28;20202;-61
2024/01/16 03:17:16;;;;;;;1.40;1.30;;;;;-3.90;95334.00;;;;5054508;28;20230;-61
2024/01/16 03:19:44;;;;;;;5.13;2.40;;;;;-4.00;95338.00;;;;5056164;28;20204;-61
2024/01/16 03:22:12;;;;;;;2.20;2.00;;;;;-4.10;95338.00;;;;5056324;28;20219;-61
2024/01/16 03:24:40;;;;;;;3.67;2.43;;;;;-4.10;95348.00;;;;5055858;28;20189;-62
2024/01/16 03:27:07;;;;;;;3.40;1.90;;;;;-4.10;95344.00;;;;5055754;28;20206;-62
2024/01/16 03:29:35;;;;;;;1.10;1.10;;;;;-4.10;95341.00;;;;5056048;28;20196;-62
2024/01/16 03:32:02;;;;;;;1.63;1.53;;;;;-4.10;95339.00;;;;5056007;28;20226;-62
2024/01/16 03:34:32;;;;;;;1.57;1.37;;;;;-4.20;95341.00;;;;5055939;28;20685;-62
2024/01/16 03:36:59;;;;;;;1.10;1.10;;;;;-4.20;95332.00;;;;5055620;28;20541;-62
2024/01/16 03:39:26;;;;;;;1.40;1.30;;;;;-4.20;95335.00;;;;5055740;28;20552;-62
2024/01/16 03:41:54;;;;;;;1.33;1.33;;;;;-4.30;95333.00;;;;5055432;28;20594;-62
2024/01/16 03:44:22;;;;;;;1.53;1.30;;;;;-4.30;95329.00;;;;5055975;28;20211;-62
2024/01/16 03:46:49;;;;;;;1.10;1.10;;;;;-4.20;95336.00;;;;5055669;28;20195;-62
2024/01/16 03:49:17;;;;;;;2.10;2.00;;;;;-4.30;95328.00;;;;5055289;28;20702;-62
2024/01/16 03:51:46;;;;;;;0.90;0.90;;;;;-4.40;95329.00;;;;5055251;28;20226;-62
2024/01/16 03:54:14;;;;;;;1.93;1.83;;;;;-4.30;95323.00;;;;5055369;28;20223;-62
2024/01/16 03:56:41;;;;;;;1.00;1.00;;;;;-4.30;95324.00;;;;5055380;28;20245;-62
2024/01/16 03:59:08;;;;;;;2.47;1.90;;;;;-4.20;95324.00;;;;5053926;28;20196;-62
2024/01/16 04:01:37;;;;;;;1.67;1.57;;;;;-4.30;95323.00;;;;5055405;28;20663;-62
2024/01/16 04:04:06;;;;;;;0.90;0.90;;;;;-4.40;95322.00;;;;5055195;28;20196;-62
2024/01/16 04:06:33;;;;;;;1.03;1.03;;;;;-4.60;95321.00;;;;5055625;28;20199;-62
2024/01/16 04:09:02;;;;;;;1.07;1.07;;;;;-4.60;95328.00;;;;5055161;28;20191;-61
2024/01/16 04:11:30;;;;;;;11.03;1.43;;;;;-4.50;95328.00;;;;5054737;28;20293;-61
2024/01/16 04:13:57;;;;;;;1.00;1.00;;;;;-4.60;95320.00;;;;5053996;28;20195;-61
2024/01/16 04:16:25;;;;;;;1.00;1.00;;;;;-4.60;95332.00;;;;5054959;28;20195;-61
2024/01/16 04:18:55;;;;;;;1.53;1.43;;;;;-4.50;95321.00;;;;5054831;28;20202;-62
2024/01/16 04:21:22;;;;;;;1.30;1.30;;;;;-4.50;95321.00;;;;5054713;28;20199;-62
2024/01/16 04:23:49;;;;;;;1.43;1.33;;;;;-4.60;95325.00;;;;5054671;28;20214;-62
2024/01/16 04:26:18;;;;;;;1.33;1.33;;;;;-4.60;95318.00;;;;5055175;28;20525;-62
2024/01/16 04:28:45;;;;;;;1.27;1.27;;;;;-4.60;95320.00;;;;5054856;28;20195;-62
2024/01/16 04:31:16;;;;;;;1.47;1.47;;;;;-4.70;95303.00;;;;5054630;28;20220;-62
2024/01/16 04:33:43;;;;;;;1.43;1.43;;;;;-4.70;95307.00;;;;5054367;28;20720;-62
2024/01/16 04:36:11;;;;;;;1.63;1.53;;;;;-4.70;95303.00;;;;5054454;28;20209;-62
2024/01/16 04:38:38;;;;;;;1.40;1.33;;;;;-4.80;95309.00;;;;5054654;28;20203;-62
2024/01/16 04:41:06;;;;;;;1.33;1.33;;;;;-4.90;95310.00;;;;5054468;28;20198;-62
2024/01/16 04:43:34;;;;;;;1.77;1.67;;;;;-4.90;95312.00;;;;5054385;28;20215;-62
2024/01/16 04:46:02;;;;;;;1.17;1.17;;;;;-4.90;95305.00;;;;5054528;28;20201;-62
2024/01/16 04:48:29;;;;;;;1.00;1.00;;;;;-4.90;95308.00;;;;5054446;28;20201;-62
2024/01/16 04:50:56;;;;;;;1.80;1.67;;;;;-4.90;95295.00;;;;5054644;28;20275;-62
2024/01/16 04:53:24;;;;;;;1.03;1.03;;;;;-4.80;95312.00;;;;5054475;28;20215;-61
2024/01/16 04:55:52;;;;;;;2.07;1.93;;;;;-4.90;95313.00;;;;5054417;28;20194;-61
2024/01/16 04:58:19;;;;;;;1.03;1.03;;;;;-5.00;95302.00;;;;5059189;28;20274;-60
2024/01/16 05:00:48;;;;;;;15.23;1.43;;;;;-5.00;95307.00;;;;5054711;28;20200;-60
2024/01/16 05:03:15;;;;;;;14.80;1.60;;;;;-5.10;95288.00;;;;5060218;28;20216;-61
2024/01/16 05:05:43;;;;;;;1.20;1.20;;;;;-5.20;95296.00;;;;5054629;28;20252;-61
2024/01/16 05:08:10;;;;;;;1.37;1.37;;;;;-5.40;95302.00;;;;5053260;28;20206;-60
2024/01/16 05:10:38;;;;;;;1.40;1.33;;;;;-5.30;95288.00;;;;5057096;28;20199;-60
2024/01/16 05:13:05;;;;;;;1.23;1.23;;;;;-5.30;95298.00;;;;5054875;28;20226;-60
2024/01/16 05:15:32;;;;;;;1.27;1.20;;;;;-5.30;95292.00;;;;5053789;28;20216;-61
2024/01/16 05:18:01;;;;;;;1.20;1.17;;;;;-5.30;95287.00;;;;5053983;28;20192;-61
2024/01/16 05:20:30;;;;;;;1.77;1.70;;;;;-5.30;95285.00;;;;5054046;28;20197;-62
2024/01/16 05:22:58;;;;;;;1.57;1.47;;;;;-5.20;95278.00;;;;5053725;28;20209;-61
2024/01/16 05:25:25;;;;;;;1.80;1.70;;;;;-5.30;95275.00;;;;5053924;28;20544;-61
2024/01/16 05:27:52;;;;;;;4.80;2.73;;;;;-5.30;95263.00;;;;5054084;28;20276;-61
2024/01/16 05:30:20;;;;;;;5.37;2.67;;;;;-5.40;95264.00;;;;5054646;28;20195;-61
2024/01/16 05:32:47;;;;;;;2.40;2.30;;;;;-5.30;95256.00;;;;5055625;28;20217;-61
2024/01/16 05:35:17;;;;;;;5.73;3.30;;;;;-5.40;95270.00;;;;5056470;28;20198;-61
2024/01/16 05:37:44;;;;;;;1.47;1.37;;;;;-6.00;95263.00;;;;5054902;28;20665;-61
2024/01/16 05:40:12;;;;;;;1.80;1.70;;;;;-5.90;95261.00;;;;5053016;28;20201;-61
2024/01/16 05:42:39;;;;;;;2.77;2.57;;;;;-6.20;95270.00;;;;5054025;28;20253;-62
2024/01/16 05:45:08;;;;;;;3.00;2.80;;;;;-6.20;95279.00;;;;5053911;28;20276;-61
2024/01/16 05:47:36;;;;;;;2.13;1.93;;;;;-6.20;95260.00;;;;5053880;28;20192;-61
2024/01/16 05:50:04;;;;;;;2.40;2.20;;;;;-6.10;95254.00;;;;5054086;28;20279;-62
2024/01/16 05:52:32;;;;;;;4.60;2.93;;;;;-6.00;95260.00;;;;5053795;28;20562;-62
2024/01/16 05:55:00;;;;;;;5.87;2.77;;;;;-5.80;95258.00;;;;5054031;28;20198;-61
2024/01/16 05:57:27;;;;;;;4.80;2.23;;;;;-5.90;95258.00;;;;5053582;28;20201;-61
2024/01/16 05:59:55;;;;;;;3.03;2.83;;;;;-5.70;95259.00;;;;5054215;28;20212;-61
2024/01/16 06:02:22;;;;;;;12.67;9.93;;;;;-5.60;95258.00;;;;5053662;28;20216;-61
2024/01/16 06:04:50;;;;;;;4.07;3.77;;;;;-5.60;95258.00;;;;5053783;28;20630;-62
2024/01/16 06:07:17;;;;;;;2.63;2.50;;;;;-5.50;95265.00;;;;5053552;28;20675;-61
2024/01/16 06:09:46;;;;;;;1.63;1.57;;;;;-5.40;95270.00;;;;5053365;28;20201;-61
2024/01/16 06:12:13;;;;;;;1.43;1.43;;;;;-5.50;95261.00;;;;5053298;28;20214;-61
2024/01/16 06:14:40;;;;;;;3.70;2.90;;;;;-5.60;95247.00;;;;5053452;28;20200;-61
2024/01/16 06:17:08;;;;;;;1.83;1.73;;;;;-5.50;95260.00;;;;5053418;28;20558;-61
2024/01/16 06:19:38;;;;;;;3.83;2.83;;;;;-5.50;95259.00;;;;5053194;28;20554;-61
2024/01/16 06:22:05;;;;;;;2.17;1.97;;;;;-5.60;95263.00;;;;5053163;28;20232;-61
2024/01/16 06:24:36;;;;;;;2.30;1.87;;;;;-5.70;95279.00;;;;5053312;28;20195;-61
2024/01/16 06:27:06;;;;;;;1.23;1.23;;;;;-5.70;95265.00;;;;5055074;28;20182;-61
2024/01/16 06:29:34;;;;;;;1.50;1.40;;;;;-5.50;95269.00;;;;5057489;28;20196;-61
2024/01/16 06:32:01;;;;;;;1.30;1.20;;;;;-5.30;95267.00;;;;5056979;28;20560;-62
2024/01/16 06:34:29;;;;;;;1.63;1.53;;;;;-5.20;95273.00;;;;5056826;28;20192;-61
2024/01/16 06:36:56;;;;;;;1.67;1.57;;;;;-5.30;95278.00;;;;5056737;28;20194;-61
2024/01/16 06:39:24;;;;;;;1.20;1.20;;;;;-5.30;95276.00;;;;5057126;28;20209;-61
2024/01/16 06:41:51;;;;;;;1.23;1.23;;;;;-5.20;95277.00;;;;5056688;28;20717;-61
2024/01/16 06:44:20;;;;;;;0.90;0.90;;;;;-5.20;95276.00;;;;5057316;28;20197;-61
2024/01/16 06:46:47;;;;;;;1.47;1.37;;;;;-5.30;95281.00;;;;5056890;28;20202;-61
2024/01/16 06:49:15;;;;;;;1.93;1.77;;;;;-5.40;95286.00;;;;5056826;28;20190;-61
2024/01/16 06:51:42;;;;;;;1.73;1.60;;;;;-5.40;95292.00;;;;5056638;28;20554;-61
2024/01/16 06:54:09;;;;;;;1.97;1.37;;;;;-5.40;95279.00;;;;5056749;28;20201;-61
2024/01/16 06:56:37;;;;;;;1.00;1.00;;;;;-5.20;95272.00;;;;5056754;28;20549;-61
2024/01/16 06:59:04;;;;;;;1.43;1.37;;;;;-5.20;95282.00;;;;5056633;28;20201;-62
2024/01/16 07:01:33;;;;;;;1.00;1.00;;;;;-5.20;95272.00;;;;5056499;28;20195;-62
2024/01/16 07:04:01;;;;;;;0.87;0.87;;;;;-5.20;95275.00;;;;5056701;28;20193;-61
2024/01/16 07:06:28;;;;;;;1.10;1.10;;;;;-5.00;95282.00;;;;5057032;28;20197;-61
2024/01/16 07:08:56;;;;;;;1.03;1.03;;;;;-5.10;95287.00;;;;5056586;28;20255;-61
2024/01/16 07:11:26;;;;;;;1.70;1.10;;;;;-5.20;95274.00;;;;5056635;28;20194;-62
2024/01/16 07:13:53;;;;;;;1.67;1.33;;;;;-5.30;95269.00;;;;5056314;28;20669;-61
2024/01/16 07:16:21;;;;;;;0.87;0.87;;;;;-5.30;95269.00;;;;5056430;28;20196;-62
2024/01/16 07:18:50;;;;;;;1.40;1.40;;;;;-5.30;95275.00;;;;5056750;28;20197;-62
2024/01/16 07:21:18;;;;;;;1.00;1.00;;;;;-5.30;95272.00;;;;5056327;28;20202;-62
2024/01/16 07:23:45;;;;;;;1.23;1.23;;;;;-5.20;95276.00;;;;5056385;28;20748;-62
2024/01/16 07:26:13;;;;;;;2.47;2.20;;;;;-5.20;95266.00;;;;5056404;28;20190;-61
2024/01/16 07:28:41;;;;;;;4.03;2.87;;;;;-5.20;95261.00;;;;5056197;28;20212;-61
2024/01/16 07:31:09;;;;;;;1.50;1.40;;;;;-5.10;95271.00;;;;5056197;28;20195;-62
2024/01/16 07:33:37;;;;;;;1.70;1.60;;;;;-5.00;95256.00;;;;5055507;28;20231;-62
2024/01/16 07:36:06;;;;;;;1.33;1.10;;;;;-5.00;95260.00;;;;5055739;28;20272;-61
2024/01/16 07:38:33;;;;;;;1.10;1.10;;;;;-5.00;95246.00;;;;5055292;28;20204;-61
2024/01/16 07:41:01;;;;;;;1.10;1.10;;;;;-4.90;95255.00;;;;5055356;28;20208;-61
2024/01/16 07:43:29;;;;;;;1.50;1.40;;;;;-4.80;95263.00;;;;5054201;28;20300;-61
2024/01/16 07:45:56;;;;;;;1.20;1.20;;;;;-4.70;95259.00;;;;5055965;28;20213;-62
2024/01/16 07:48:24;;;;;;;1.23;1.23;;;;;-4.60;95269.00;;;;5055545;28;20197;-62
2024/01/16 07:50:52;;;;;;;1.00;1.00;;;;;-4.80;95261.00;;;;5055635;28;20200;-62
2024/01/16 07:53:20;;;;;;;1.03;1.03;;;;;-4.70;95264.00;;;;5055337;28;20230;-61
2024/01/16 07:55:48;;;;;;;1.33;1.30;;;;;-4.80;95275.00;;;;5055489;28;20201;-62
2024/01/16 07:58:15;;;;;;;1.30;1.30;;;;;-4.60;95262.00;;;;5051659;28;20197;-62
2024/01/16 08:00:43;;;;;;;1.10;1.10;;;;;-4.70;95267.00;;;;5051759;28;20681;-63
2024/01/16 08:03:11;;;;;;;1.17;1.17;;;;;-4.50;95273.00;;;;5053227;28;20219;-61
2024/01/16 08:05:39;;;;;;;1.43;1.33;;;;;-4.60;95265.00;;;;5051558;28;20675;-61
2024/01/16 08:08:09;;;;;;;1.40;1.30;;;;;-4.50;95266.00;;;;5051502;28;20563;-61
2024/01/16 08:10:38;;;;;;;2.03;1.90;;;;;-4.30;95269.00;;;;5052985;28;20622;-61
2024/01/16 08:13:05;;;;;;;1.70;1.60;;;;;-4.10;95263.00;;;;5052555;28;20218;-61
2024/01/16 08:15:32;;;;;;;1.03;1.03;;;;;-3.90;95268.00;;;;5052394;28;20194;-61
2024/01/16 08:18:00;;;;;;;0.90;0.90;;;;;-3.90;95258.00;;;;5052515;28;20210;-61
2024/01/16 08:20:27;;;;;;;2.37;2.20;;;;;-4.00;95261.00;;;;5051244;28;20208;-61
2024/01/16 08:22:55;;;;;;;1.07;0.93;;;;;-3.90;95264.00;;;;5052541;28;20217;-61
2024/01/16 08:25:22;;;;;;;1.37;1.27;;;;;-3.70;95269.00;;;;5052389;28;20199;-61
2024/01/16 08:27:51;;;;;;;0.70;0.70;;;;;-3.50;95276.00;;;;5052401;28;20199;-61
2024/01/16 08:30:19;;;;;;;1.30;1.30;;;;;-3.60;95283.00;;;;5052385;28;20231;-61
2024/01/16 08:32:46;;;;;;;1.97;1.87;;;;;-3.60;95283.00;;;;5052511;28;20242;-61
2024/01/16 08:35:16;;;;;;;1.77;1.67;;;;;-3.40;95280.00;;;;5052527;28;20674;-61
2024/01/16 08:37:43;;;;;;;1.70;1.60;;;;;-3.40;95286.00;;;;5052238;28;20206;-61
2024/01/16 08:40:12;;;;;;;3.90;2.13;;;;;-3.50;95280.00;;;;5052528;28;20559;-61
2024/01/16 08:42:40;;;;;;;0.80;0.80;;;;;-3.20;95273.00;;;;5051509;28;20235;-60
2024/01/16 08:45:09;;;;;;;1.17;1.10;;;;;-3.00;95270.00;;;;5052407;28;20219;-60
2024/01/16 08:47:37;;;;;;;1.07;0.97;;;;;-2.80;95269.00;;;;5053026;28;20199;-60
2024/01/16 08:50:09;;;;;;;2.47;1.87;;;;;-2.60;95261.00;;;;5050610;28;20203;-60
2024/01/16 08:52:36;;;;;;;1.47;1.37;;;;;-2.40;95269.00;;;;5051698;28;20619;-61
2024/01/16 08:55:04;;;;;;;1.07;1.07;;;;;-2.40;95260.00;;;;5050276;28;20565;-61
2024/01/16 08:57:32;;;;;;;3.23;1.67;;;;;-2.10;95267.00;;;;5051912;28;20261;-61
2024/01/16 09:00:00;;;;;;;1.87;1.77;;;;;-1.90;95261.00;;;;5051968;28;20274;-62
2024/01/16 09:02:30;;;;;;;3.43;2.77;;;;;-1.70;95254.00;;;;5051653;28;20273;-62
2024/01/16 09:04:58;;;;;;;1.43;1.33;;;;;-1.50;95265.00;;;;5050407;28;20226;-61
2024/01/16 09:07:26;;;;;;;1.57;1.47;;;;;-1.80;95269.00;;;;5050926;28;20263;-61
2024/01/16 09:09:53;;;;;;;1.43;1.33;;;;;-1.60;95269.00;;;;5051680;28;20192;-61
2024/01/16 09:12:21;;;;;;;2.07;1.87;;;;;-1.90;95266.00;;;;5051327;28;20243;-61
2024/01/16 09:14:48;;;;;;;1.20;1.20;;;;;-1.70;95270.00;;;;5051906;28;20541;-61
2024/01/16 09:17:16;;;;;;;1.40;1.30;;;;;-1.40;95286.00;;;;5051944;28;20196;-61
2024/01/16 09:19:45;;;;;;;1.50;1.40;;;;;-1.30;95280.00;;;;5051410;28;20279;-61
2024/01/16 09:22:12;;;;;;;2.40;1.40;;;;;-1.20;95274.00;;;;5051985;28;20215;-61
2024/01/16 09:24:39;;;;;;;1.30;1.30;;;;;-1.30;95272.00;;;;5051155;28;20223;-61
2024/01/16 09:27:09;;;;;;;1.30;0.97;;;;;-1.10;95266.00;;;;5051889;28;20279;-61
2024/01/16 09:29:37;;;;;;;1.77;1.63;;;;;-0.90;95271.00;;;;5050924;28;20197;-61
2024/01/16 09:32:06;;;;;;;1.80;1.70;;;;;-0.70;95262.00;;;;5051590;28;20747;-62
2024/01/16 09:34:33;;;;;;;1.47;1.37;;;;;-0.40;95264.00;;;;5050076;28;20215;-61
2024/01/16 09:37:02;;;;;;;1.73;1.63;;;;;-0.20;95269.00;;;;5051227;28;20635;-61
2024/01/16 09:39:31;;;;;;;2.10;1.97;;;;;-0.20;95272.00;;;;5051174;28;20231;-61
2024/01/16 09:42:01;;;;;;;1.33;1.33;;;;;-0.10;95261.00;;;;5051079;28;20252;-61
2024/01/16 09:44:29;;;;;;;1.20;1.20;;;;;0.00;95255.00;;;;5051176;28;20203;-61
2024/01/16 09:46:58;;;;;;;1.67;1.53;;;;;0.00;95268.00;;;;5048669;28;20276;-62
2024/01/16 09:49:26;;;;;;;2.47;2.27;;;;;0.00;95258.00;;;;5050819;28;20265;-62
2024/01/16 09:51:54;;;;;;;1.10;1.10;;;;;0.20;95267.00;;;;5051764;28;20213;-62
2024/01/16 09:54:23;;;;;;;1.23;1.23;;;;;0.40;95262.00;;;;5049949;28;20268;-61
2024/01/16 09:56:54;;;;;;;1.10;1.10;;;;;0.50;95250.00;;;;5051468;28;20281;-61
2024/01/16 09:59:23;;;;;;;0.83;0.83;;;;;0.40;95254.00;;;;5049328;28;20207;-61
2024/01/16 10:01:52;;;;;;;3.00;1.87;;;;;0.20;95246.00;;;;5053716;28;20827;-61
2024/01/16 10:04:20;;;;;;;2.13;1.47;;;;;0.00;95262.00;;;;5055450;28;20196;-61
2024/01/16 10:06:48;;;;;;;1.43;1.33;;;;;0.30;95258.00;;;;5055079;28;20191;-62
2024/01/16 10:09:17;;;;;;;2.10;1.87;;;;;0.50;95252.00;;;;5055220;28;20220;-62
2024/01/16 10:11:54;;;;;;;20.90;1.70;;;;;0.70;95251.00;;;;5054843;28;20590;-62
2024/01/16 10:14:22;;;;;;;1.63;1.53;;;;;1.10;95240.00;;;;5053562;28;20217;-61
2024/01/16 10:16:59;;;;;;;1.03;1.03;;;;;1.10;95233.00;;;;5055661;28;20199;-61
2024/01/16 10:19:30;;;;;;;1.40;1.33;;;;;1.30;95238.00;;;;5055046;28;20260;-61
2024/01/16 10:22:06;;;;;;;0.80;0.80;;;;;1.70;95234.00;;;;5053564;28;20269;-61
2024/01/16 10:24:36;;;;;;;1.00;1.00;;;;;1.90;95225.00;;;;5054730;28;20191;-61
2024/01/16 10:27:06;;;;;;;2.60;1.10;;;;;2.00;95233.00;;;;5054841;28;20187;-61
2024/01/16 10:29:33;;;;;;;1.17;1.17;;;;;1.70;95227.00;;;;5054645;28;20254;-62
2024/01/16 10:32:09;;;;;;;1.23;1.23;;;;;1.80;95234.00;;;;5054717;28;20555;-62
2024/01/16 10:34:36;;;;;;;1.20;1.20;;;;;1.60;95223.00;;;;5053582;28;20698;-61
2024/01/16 10:37:04;;;;;;;1.03;1.03;;;;;1.60;95228.00;;;;5054856;28;20222;-61
2024/01/16 10:39:31;;;;;;;2.10;1.47;;;;;1.80;95230.00;;;;5054248;28;20619;-61
2024/01/16 10:41:59;;;;;;;1.40;1.30;;;;;1.80;95234.00;;;;5054174;28;20707;-61
2024/01/16 10:44:29;;;;;;;0.77;0.77;;;;;1.70;95215.00;;;;5055238;28;20195;-61
2024/01/16 10:47:12;;;;;;;1.40;1.30;;;;;1.80;95227.00;;;;5049383;28;20196;-62
2024/01/16 10:49:40;;;;;;;1.80;1.60;;;;;2.10;95215.00;;;;5055302;28;20237;-62
2024/01/16 10:52:12;;;;;;;1.07;1.07;;;;;2.10;95205.00;;;;5053708;28;20230;-62
2024/01/16 10:54:44;;;;;;;1.33;1.33;;;;;2.20;95221.00;;;;5052983;28;20862;-61
2024/01/16 10:57:13;;;;;;;1.20;1.20;;;;;2.40;95222.00;;;;5057954;28;20674;-62
2024/01/16 10:59:55;;;;;;;0.70;0.70;;;;;2.60;95201.00;;;;5053360;28;20196;-62
2024/01/16 11:02:31;;;;;;;1.43;1.33;;;;;2.30;95197.00;;;;5052747;28;20223;-61
2024/01/16 11:04:58;;;;;;;1.47;1.37;;;;;2.60;95186.00;;;;5054605;28;20191;-61
2024/01/16 11:07:26;;;;;;;0.90;0.90;;;;;2.90;95203.00;;;;5053732;28;20745;-61
2024/01/16 11:09:55;;;;;;;0.83;0.83;;;;;2.80;95183.00;;;;5052639;28;20204;-62
2024/01/16 11:12:26;;;;;;;1.37;1.00;;;;;2.60;95190.00;;;;5053259;28;20220;-61
2024/01/16 11:14:56;;;;;;;2.00;1.67;;;;;3.40;95178.00;;;;5052998;28;20227;-61
2024/01/16 11:17:24;;;;;;;1.17;1.17;;;;;3.40;95171.00;;;;5053294;28;20648;-61
2024/01/16 11:19:52;;;;;;;1.90;1.73;;;;;3.60;95166.00;;;;5054057;28;20196;-62
2024/01/16 11:22:20;;;;;;;1.00;1.00;;;;;3.20;95157.00;;;;5053260;28;20208;-62
2024/01/16 11:25:08;;;;;;;0.80;0.80;;;;;4.40;95153.00;;;;5054169;28;20671;-61
2024/01/16 11:27:37;;;;;;;1.10;1.10;;;;;5.10;95129.00;;;;5052208;28;20291;-62
2024/01/16 11:30:07;;;;;;;0.70;0.70;;;;;4.70;95126.00;;;;5053961;28;20604;-61
2024/01/16 11:32:36;;;;;;;0.90;0.90;;;;;4.60;95124.00;;;;5053025;28;20612;-62
2024/01/16 11:35:04;;;;;;;1.23;1.13;;;;;3.90;95113.00;;;;5053834;28;20219;-62
2024/01/16 11:37:33;;;;;;;2.23;2.03;;;;;5.10;95102.00;;;;5052886;28;20196;-61
2024/01/16 11:40:26;;;;;;;1.00;1.00;;;;;5.00;95085.00;;;;5052375;28;20568;-62
2024/01/16 11:42:55;;;;;;;2.03;1.73;;;;;5.90;95089.00;;;;5048963;28;20766;-62
2024/01/16 11:45:53;;;;;;;1.00;1.00;;;;;5.10;95075.00;;;;5053637;28;20200;-61
2024/01/16 11:48:21;;;;;;;6.70;0.97;;;;;6.50;95066.00;;;;5048489;28;20192;-61
2024/01/16 11:50:49;;;;;;;0.73;0.73;;;;;8.20;95072.00;;;;5053281;28;20245;-63
2024/01/16 11:53:38;;;;;;;0.70;0.70;;;;;9.40;95064.00;;;;5053070;28;20224;-61
2024/01/16 11:56:42;;;;;;;0.80;0.80;;;;;8.10;95050.00;;;;5052222;28;20196;-60
2024/01/16 11:59:42;;;;;;;0.80;0.80;;;;;9.60;95045.00;;;;5053555;28;20188;-62
2024/01/16 12:02:19;;;;;;;1.33;1.30;;;;;9.30;95050.00;;;;5051051;28;20220;-61
2024/01/16 12:04:56;;;;;;;1.07;0.97;;;;;10.30;95042.00;;;;5054756;28;20180;-60
2024/01/16 12:07:23;;;;;;;1.37;1.03;;;;;10.60;95039.00;;;;5053421;28;20200;-61
2024/01/16 12:09:51;;;;;;;0.80;0.80;;;;;12.40;95034.00;;;;5051793;28;20634;-60
2024/01/16 12:12:20;;;;;;;0.70;0.70;;;;;13.40;95038.00;;;;5052600;28;20247;-60
2024/01/16 12:14:56;;;;;;;1.00;1.00;;;;;13.80;95031.00;;;;5052745;28;20208;-61
2024/01/16 12:17:25;;;;;;;0.80;0.80;;;;;16.30;95027.00;;;;5052860;28;20213;-61
2024/01/16 12:19:52;;;;;;;1.30;1.20;;;;;18.30;95044.00;;;;5052332;28;20276;-61
2024/01/16 12:22:22;;;;;;;0.70;0.70;;;;;17.70;95039.00;;;;5053155;28;20216;-61
2024/01/16 12:24:50;;;;;;;4.60;1.07;;;;;20.40;95040.00;;;;5050228;28;20224;-62
2024/01/16 12:27:17;;;;;;;0.60;0.60;;;;;21.20;95037.00;;;;5052110;28;20204;-61